createdAt,value
2023-03-05T00:00:25.787Z,18.43
2023-03-05T00:01:15.374Z,17.37
2023-03-05T00:01:54.940Z,18.87
2023-03-05T00:02:37.192Z,19.00
2023-03-05T00:03:16.235Z,19.43
2023-03-05T00:03:56.578Z,18.47
2023-03-05T00:04:37.166Z,18.80
2023-03-05T00:06:14.945Z,18.30
2023-03-05T00:06:55.920Z,17.83
2023-03-05T00:07:36.220Z,17.80
2023-03-05T00:08:15.231Z,17.73
2023-03-05T00:08:53.836Z,18.37
2023-03-05T00:09:59.197Z,18.07
2023-03-05T00:10:38.913Z,18.13
2023-03-05T00:11:18.151Z,17.50
2023-03-05T00:13:32.677Z,17.03
2023-03-05T00:14:12.241Z,17.73
2023-03-05T00:14:52.195Z,18.80
2023-03-05T00:15:34.168Z,17.30
2023-03-05T00:16:12.961Z,17.80
2023-03-05T00:17:17.288Z,18.17
2023-03-05T00:18:38.175Z,17.33
2023-03-05T00:20:04.530Z,17.97
2023-03-05T00:20:44.193Z,17.00
2023-03-05T00:21:29.322Z,16.87
2023-03-05T00:22:17.230Z,18.03
2023-03-05T00:22:56.111Z,18.57
2023-03-05T00:23:47.957Z,16.77
2023-03-05T00:24:28.309Z,16.90
2023-03-05T00:25:07.630Z,17.10
2023-03-05T00:25:50.123Z,17.63
2023-03-05T00:26:29.364Z,17.13
2023-03-05T00:27:09.059Z,17.60
2023-03-05T00:27:48.064Z,17.27
2023-03-05T00:28:27.164Z,17.27
2023-03-05T00:29:21.871Z,18.20
2023-03-05T00:30:01.111Z,17.13
2023-03-05T00:30:41.988Z,16.90
2023-03-05T00:31:25.534Z,16.80
2023-03-05T00:33:06.833Z,16.50
2023-03-05T00:33:46.425Z,16.77
2023-03-05T00:35:03.248Z,16.97
2023-03-05T00:36:15.080Z,15.70
2023-03-05T00:36:53.862Z,16.47
2023-03-05T00:37:33.160Z,17.90
2023-03-05T00:38:14.850Z,16.77
2023-03-05T00:39:20.105Z,17.07
2023-03-05T00:41:29.114Z,17.00
2023-03-05T00:42:18.331Z,16.20
2023-03-05T00:43:56.042Z,16.20
2023-03-05T00:44:38.110Z,16.70
2023-03-05T00:45:19.779Z,16.33
2023-03-05T00:45:58.141Z,15.80
2023-03-05T00:46:40.602Z,15.27
2023-03-05T00:47:23.165Z,16.03
2023-03-05T00:48:05.353Z,16.30
2023-03-05T00:48:47.301Z,16.50
2023-03-05T00:49:35.972Z,16.57
2023-03-05T00:50:16.787Z,15.83
2023-03-05T00:50:59.217Z,16.73
2023-03-05T00:51:38.284Z,16.27
2023-03-05T00:52:21.336Z,15.77
2023-03-05T00:53:00.104Z,16.23
2023-03-05T00:53:39.131Z,16.10
2023-03-05T00:54:17.908Z,16.03
2023-03-05T00:54:57.365Z,15.97
2023-03-05T00:57:07.980Z,17.03
2023-03-05T00:57:48.334Z,16.13
2023-03-05T01:00:22.736Z,16.03
2023-03-05T01:01:12.080Z,15.13
2023-03-05T01:01:52.143Z,15.50
2023-03-05T01:02:33.728Z,15.77
2023-03-05T01:03:14.138Z,15.83
2023-03-05T01:03:53.256Z,15.67
2023-03-05T01:04:32.688Z,15.83
2023-03-05T01:06:10.856Z,14.57
2023-03-05T01:06:50.566Z,15.27
2023-03-05T01:09:05.130Z,15.57
2023-03-05T01:09:46.437Z,15.63
2023-03-05T01:10:27.020Z,15.93
2023-03-05T01:11:07.151Z,14.63
2023-03-05T01:11:54.798Z,15.60
2023-03-05T01:14:11.923Z,15.30
2023-03-05T01:14:51.816Z,14.47
2023-03-05T01:15:40.781Z,15.20
2023-03-05T01:16:19.887Z,14.80
2023-03-05T01:17:01.033Z,15.30
2023-03-05T01:17:41.638Z,15.53
2023-03-05T01:18:22.470Z,15.23
2023-03-05T01:19:11.549Z,14.77
2023-03-05T01:19:50.643Z,15.27
2023-03-05T01:20:33.013Z,15.00
2023-03-05T01:21:11.792Z,14.87
2023-03-05T01:21:52.239Z,15.63
2023-03-05T01:22:34.736Z,15.13
2023-03-05T01:23:16.915Z,15.17
2023-03-05T01:23:58.933Z,15.27
2023-03-05T01:24:40.292Z,15.43
2023-03-05T01:25:21.051Z,15.20
2023-03-05T01:26:08.728Z,14.93
2023-03-05T01:26:48.335Z,14.37
2023-03-05T01:27:27.772Z,15.07
2023-03-05T01:28:07.020Z,15.83
2023-03-05T01:28:46.769Z,14.73
2023-03-05T01:29:27.266Z,15.37
2023-03-05T01:30:11.964Z,16.27
2023-03-05T01:30:51.102Z,16.07
2023-03-05T01:31:38.976Z,16.07
2023-03-05T01:33:13.517Z,14.83
2023-03-05T01:33:55.395Z,14.77
2023-03-05T01:35:24.931Z,15.20
2023-03-05T01:37:16.495Z,15.63
2023-03-05T01:38:22.044Z,15.30
2023-03-05T01:39:02.849Z,15.40
2023-03-05T01:39:44.778Z,15.83
2023-03-05T01:40:23.537Z,14.83
2023-03-05T01:41:03.777Z,15.43
2023-03-05T01:41:45.422Z,16.03
2023-03-05T01:42:35.677Z,16.00
2023-03-05T01:43:15.617Z,15.60
2023-03-05T01:44:35.418Z,15.47
2023-03-05T01:45:18.885Z,16.03
2023-03-05T01:46:13.863Z,14.63
2023-03-05T01:46:56.113Z,15.70
2023-03-05T01:47:41.211Z,15.87
2023-03-05T01:48:20.477Z,15.77
2023-03-05T01:49:21.173Z,15.77
2023-03-05T01:50:13.927Z,14.83
2023-03-05T01:50:55.842Z,15.33
2023-03-05T01:51:42.144Z,14.80
2023-03-05T01:52:27.630Z,15.23
2023-03-05T01:53:08.681Z,15.50
2023-03-05T01:53:48.305Z,15.13
2023-03-05T01:54:28.489Z,15.83
2023-03-05T01:55:20.070Z,15.43
2023-03-05T01:56:53.546Z,15.57
2023-03-05T01:57:52.372Z,15.37
2023-03-05T01:58:32.837Z,15.57
2023-03-05T02:00:01.336Z,14.97
2023-03-05T02:00:52.424Z,15.13
2023-03-05T02:02:52.118Z,15.03
2023-03-05T02:03:34.440Z,15.30
2023-03-05T02:04:24.137Z,14.73
2023-03-05T02:05:04.815Z,14.63
2023-03-05T02:05:51.614Z,14.83
2023-03-05T02:06:33.462Z,14.93
2023-03-05T02:07:15.839Z,14.37
2023-03-05T02:07:58.643Z,15.07
2023-03-05T02:08:38.140Z,14.57
2023-03-05T02:09:42.408Z,13.63
2023-03-05T02:12:22.413Z,14.57
2023-03-05T02:13:40.859Z,14.87
2023-03-05T02:14:24.497Z,13.90
2023-03-05T02:15:05.334Z,14.30
2023-03-05T02:16:36.067Z,14.43
2023-03-05T02:17:16.307Z,14.13
2023-03-05T02:18:03.689Z,14.63
2023-03-05T02:18:44.074Z,13.90
2023-03-05T02:19:23.943Z,14.10
2023-03-05T02:20:21.337Z,14.77
2023-03-05T02:21:09.989Z,14.70
2023-03-05T02:21:52.021Z,14.43
2023-03-05T02:22:43.575Z,13.60
2023-03-05T02:23:26.251Z,13.80
2023-03-05T02:24:06.325Z,14.07
2023-03-05T02:24:45.711Z,13.93
2023-03-05T02:25:35.098Z,14.30
2023-03-05T02:26:18.497Z,14.20
2023-03-05T02:27:06.684Z,14.03
2023-03-05T02:28:00.350Z,13.53
2023-03-05T02:28:49.722Z,13.60
2023-03-05T02:29:31.941Z,14.50
2023-03-05T02:30:13.284Z,14.20
2023-03-05T02:30:54.703Z,13.80
2023-03-05T02:31:34.957Z,13.53
2023-03-05T02:32:23.703Z,13.87
2023-03-05T02:33:05.885Z,13.63
2023-03-05T02:33:47.459Z,14.10
2023-03-05T02:35:05.138Z,13.70
2023-03-05T02:35:47.928Z,12.90
2023-03-05T02:36:51.325Z,12.30
2023-03-05T02:40:14.076Z,12.77
2023-03-05T02:40:54.966Z,13.40
2023-03-05T02:42:24.704Z,13.47
2023-03-05T02:43:05.188Z,12.97
2023-03-05T02:43:44.936Z,13.47
2023-03-05T02:44:24.959Z,13.33
2023-03-05T02:45:12.437Z,13.23
2023-03-05T02:45:56.486Z,13.33
2023-03-05T02:46:35.308Z,13.37
2023-03-05T02:47:22.649Z,12.20
2023-03-05T02:48:09.680Z,13.17
2023-03-05T02:48:50.198Z,13.10
2023-03-05T02:49:39.597Z,13.93
2023-03-05T02:50:28.851Z,13.43
2023-03-05T02:51:32.132Z,12.57
2023-03-05T02:52:11.453Z,13.70
2023-03-05T02:52:58.701Z,13.07
2023-03-05T02:53:38.802Z,13.47
2023-03-05T02:54:21.254Z,13.50
2023-03-05T02:55:01.193Z,13.47
2023-03-05T02:55:50.945Z,13.60
2023-03-05T02:56:32.859Z,13.40
2023-03-05T02:57:12.766Z,13.27
2023-03-05T02:57:59.673Z,13.17
2023-03-05T02:58:42.107Z,12.77
2023-03-05T02:59:29.709Z,13.33
2023-03-05T03:00:09.634Z,13.10
2023-03-05T03:00:48.722Z,12.17
2023-03-05T03:01:29.898Z,12.07
2023-03-05T03:02:18.588Z,12.80
2023-03-05T03:02:59.453Z,12.03
2023-03-05T03:04:26.773Z,10.90
2023-03-05T03:05:09.657Z,10.53
2023-03-05T03:06:02.698Z,10.97
2023-03-05T03:06:42.139Z,11.70
2023-03-05T03:07:21.855Z,10.73
2023-03-05T03:08:10.766Z,11.03
2023-03-05T03:08:59.778Z,11.40
2023-03-05T03:09:39.169Z,11.67
2023-03-05T03:10:19.970Z,12.03
2023-03-05T03:11:15.209Z,11.53
2023-03-05T03:11:54.985Z,11.80
2023-03-05T03:12:38.928Z,12.87
2023-03-05T03:13:18.908Z,12.00
2023-03-05T03:15:30.790Z,13.50
2023-03-05T03:16:14.201Z,13.17
2023-03-05T03:17:18.946Z,12.97
2023-03-05T03:18:00.979Z,13.00
2023-03-05T03:18:49.788Z,13.07
2023-03-05T03:19:32.009Z,12.50
2023-03-05T03:20:17.232Z,12.13
2023-03-05T03:20:56.740Z,12.67
2023-03-05T03:21:42.618Z,13.23
2023-03-05T03:22:24.768Z,12.77
2023-03-05T03:23:07.419Z,13.27
2023-03-05T03:23:46.989Z,12.43
2023-03-05T03:24:39.228Z,12.90
2023-03-05T03:25:21.403Z,12.63
2023-03-05T03:27:55.753Z,12.67
2023-03-05T03:28:35.329Z,12.60
2023-03-05T03:29:17.864Z,12.73
2023-03-05T03:30:37.083Z,12.73
2023-03-05T03:32:59.482Z,12.07
2023-03-05T03:34:19.583Z,12.90
2023-03-05T03:34:59.984Z,13.37
2023-03-05T03:35:41.895Z,12.10
2023-03-05T03:36:23.823Z,12.27
2023-03-05T03:37:03.838Z,12.47
2023-03-05T03:37:55.587Z,12.80
2023-03-05T03:38:34.798Z,11.97
2023-03-05T03:39:15.218Z,12.47
2023-03-05T03:39:56.534Z,12.00
2023-03-05T03:40:37.555Z,11.90
2023-03-05T03:43:16.905Z,12.50
2023-03-05T03:44:36.880Z,11.67
2023-03-05T03:45:16.384Z,12.33
2023-03-05T03:45:56.979Z,12.13
2023-03-05T03:47:57.707Z,12.03
2023-03-05T03:48:49.618Z,11.73
2023-03-05T03:49:29.752Z,12.27
2023-03-05T03:50:33.336Z,11.97
2023-03-05T03:51:12.431Z,12.23
2023-03-05T03:51:54.831Z,12.50
2023-03-05T03:53:14.376Z,12.30
2023-03-05T03:54:35.045Z,11.83
2023-03-05T03:57:10.661Z,12.93
2023-03-05T03:58:37.627Z,12.93
2023-03-05T03:59:26.809Z,12.50
2023-03-05T04:00:12.896Z,12.70
2023-03-05T04:00:54.814Z,12.50
2023-03-05T04:01:34.513Z,12.60
2023-03-05T04:02:15.148Z,13.03
2023-03-05T04:03:47.652Z,12.47
2023-03-05T04:04:36.636Z,12.73
2023-03-05T04:05:18.902Z,13.03
2023-03-05T04:05:57.932Z,12.97
2023-03-05T04:06:40.490Z,12.17
2023-03-05T04:07:22.754Z,12.73
2023-03-05T04:08:01.814Z,12.93
2023-03-05T04:08:53.795Z,12.63
2023-03-05T04:09:32.766Z,12.23
2023-03-05T04:10:12.628Z,12.60
2023-03-05T04:11:04.906Z,12.87
2023-03-05T04:12:08.228Z,12.47
2023-03-05T04:13:27.980Z,13.20
2023-03-05T04:14:10.043Z,13.20
2023-03-05T04:14:50.076Z,12.83
2023-03-05T04:15:38.960Z,13.53
2023-03-05T04:16:22.039Z,12.67
2023-03-05T04:17:01.371Z,12.93
2023-03-05T04:18:05.211Z,12.80
2023-03-05T04:19:32.600Z,13.07
2023-03-05T04:20:36.181Z,13.50
2023-03-05T04:22:56.893Z,13.03
2023-03-05T04:24:30.529Z,12.77
2023-03-05T04:25:10.935Z,13.37
2023-03-05T04:25:53.609Z,12.37
2023-03-05T04:26:34.236Z,13.10
2023-03-05T04:27:17.694Z,12.70
2023-03-05T04:29:09.734Z,13.37
2023-03-05T04:29:49.909Z,13.97
2023-03-05T04:30:44.026Z,14.10
2023-03-05T04:32:33.866Z,13.60
2023-03-05T04:33:14.199Z,14.47
2023-03-05T04:33:53.997Z,14.30
2023-03-05T04:34:44.732Z,14.70
2023-03-05T04:36:59.252Z,14.97
2023-03-05T04:37:45.705Z,15.07
2023-03-05T04:38:27.512Z,14.90
2023-03-05T04:39:15.664Z,15.40
2023-03-05T04:40:57.338Z,14.70
2023-03-05T04:42:17.703Z,15.47
2023-03-05T04:43:21.404Z,15.00
2023-03-05T04:44:53.723Z,14.87
2023-03-05T04:45:34.499Z,15.27
2023-03-05T04:46:14.155Z,14.97
2023-03-05T04:46:57.866Z,15.67
2023-03-05T04:49:55.701Z,14.83
2023-03-05T04:50:59.494Z,15.03
2023-03-05T04:51:38.547Z,15.17
2023-03-05T04:52:18.842Z,14.97
2023-03-05T04:53:01.626Z,15.27
2023-03-05T04:53:41.823Z,15.80
2023-03-05T04:54:22.686Z,15.33
2023-03-05T04:55:02.826Z,14.60
2023-03-05T04:55:54.993Z,16.03
2023-03-05T04:56:37.215Z,16.00
2023-03-05T04:57:17.261Z,15.20
2023-03-05T04:57:58.968Z,15.40
2023-03-05T04:59:41.526Z,15.33
2023-03-05T05:00:20.397Z,15.80
2023-03-05T05:01:05.675Z,15.43
2023-03-05T05:02:09.530Z,15.57
2023-03-05T05:03:26.900Z,15.50
2023-03-05T05:08:54.957Z,15.53
2023-03-05T05:09:43.305Z,16.47
2023-03-05T05:11:06.682Z,17.47
2023-03-05T05:11:53.409Z,17.20
2023-03-05T05:12:36.319Z,17.37
2023-03-05T05:13:16.454Z,16.97
2023-03-05T05:14:02.589Z,17.67
2023-03-05T05:15:07.418Z,17.23
2023-03-05T05:17:11.719Z,17.47
2023-03-05T05:18:54.351Z,16.53
2023-03-05T05:19:34.176Z,17.20
2023-03-05T05:20:18.968Z,16.93
2023-03-05T05:20:59.555Z,16.90
2023-03-05T05:21:38.691Z,16.53
2023-03-05T05:22:20.048Z,17.27
2023-03-05T05:23:07.396Z,16.87
2023-03-05T05:23:55.358Z,17.13
2023-03-05T05:24:34.499Z,16.73
2023-03-05T05:25:21.381Z,16.10
2023-03-05T05:26:02.263Z,17.77
2023-03-05T05:26:42.546Z,16.73
2023-03-05T05:27:45.876Z,16.40
2023-03-05T05:29:10.383Z,16.40
2023-03-05T05:29:53.133Z,15.73
2023-03-05T05:30:56.805Z,16.77
2023-03-05T05:32:27.718Z,16.17
2023-03-05T05:33:35.325Z,16.63
2023-03-05T05:34:22.485Z,16.67
2023-03-05T05:36:41.561Z,15.87
2023-03-05T05:37:21.386Z,15.70
2023-03-05T05:38:25.402Z,15.93
2023-03-05T05:41:12.559Z,15.53
2023-03-05T05:41:53.910Z,15.80
2023-03-05T05:42:34.688Z,15.97
2023-03-05T05:43:23.349Z,15.83
2023-03-05T05:44:11.796Z,16.27
2023-03-05T05:44:55.567Z,16.27
2023-03-05T05:45:45.325Z,15.87
2023-03-05T05:46:26.019Z,15.40
2023-03-05T05:47:16.463Z,15.97
2023-03-05T05:47:56.984Z,16.93
2023-03-05T05:49:18.250Z,16.97
2023-03-05T05:50:43.399Z,16.50
2023-03-05T05:51:46.930Z,16.47
2023-03-05T05:52:26.386Z,16.77
2023-03-05T05:53:06.545Z,17.67
2023-03-05T05:54:12.741Z,17.30
2023-03-05T05:56:20.571Z,16.47
2023-03-05T05:56:59.651Z,17.60
2023-03-05T05:57:39.284Z,17.27
2023-03-05T05:58:43.979Z,17.47
2023-03-05T06:00:45.175Z,16.43
2023-03-05T06:01:37.393Z,16.40
2023-03-05T06:02:42.161Z,17.40
2023-03-05T06:04:45.481Z,16.70
2023-03-05T06:06:28.106Z,16.07
2023-03-05T06:07:57.121Z,16.97
2023-03-05T06:08:42.586Z,16.33
2023-03-05T06:10:16.091Z,16.63
2023-03-05T06:12:14.892Z,16.43
2023-03-05T06:13:04.142Z,16.60
2023-03-05T06:14:47.245Z,16.50
2023-03-05T06:16:01.695Z,16.63
2023-03-05T06:17:31.052Z,17.20
2023-03-05T06:18:19.318Z,16.43
2023-03-05T06:19:07.232Z,16.23
2023-03-05T06:20:11.028Z,16.77
2023-03-05T06:21:16.648Z,16.10
2023-03-05T06:22:39.189Z,16.63
2023-03-05T06:23:28.581Z,15.87
2023-03-05T06:24:08.147Z,15.87
2023-03-05T06:24:50.756Z,15.93
2023-03-05T06:26:56.425Z,15.53
2023-03-05T06:27:37.046Z,15.70
2023-03-05T06:28:18.154Z,15.97
2023-03-05T06:29:07.414Z,16.23
2023-03-05T06:29:56.770Z,16.00
2023-03-05T06:31:58.655Z,15.27
2023-03-05T06:33:20.578Z,15.67
2023-03-05T06:34:45.443Z,15.10
2023-03-05T06:35:24.600Z,14.47
2023-03-05T06:36:18.354Z,15.10
2023-03-05T06:37:22.185Z,15.27
2023-03-05T06:38:44.662Z,15.37
2023-03-05T06:39:23.757Z,15.00
2023-03-05T06:40:15.602Z,15.23
2023-03-05T06:41:09.562Z,14.60
2023-03-05T06:42:27.583Z,14.53
2023-03-05T06:43:13.464Z,14.77
2023-03-05T06:43:53.301Z,15.67
2023-03-05T06:44:56.708Z,14.87
2023-03-05T06:47:15.808Z,14.57
2023-03-05T06:47:55.513Z,14.80
2023-03-05T06:48:37.780Z,14.57
2023-03-05T06:49:26.462Z,14.93
2023-03-05T06:50:15.438Z,14.30
2023-03-05T06:50:57.741Z,14.03
2023-03-05T06:51:39.775Z,14.00
2023-03-05T06:52:18.628Z,14.37
2023-03-05T06:53:00.633Z,14.27
2023-03-05T06:54:06.188Z,13.90
2023-03-05T06:55:26.752Z,13.83
2023-03-05T06:56:46.858Z,12.57
2023-03-05T06:59:17.844Z,13.50
2023-03-05T07:00:37.543Z,14.63
2023-03-05T07:01:21.442Z,14.33
2023-03-05T07:02:01.569Z,14.20
2023-03-05T07:02:53.529Z,13.87
2023-03-05T07:03:35.425Z,14.60
2023-03-05T07:04:14.244Z,14.07
2023-03-05T07:05:01.425Z,14.10
2023-03-05T07:05:41.940Z,14.47
2023-03-05T07:06:46.235Z,14.30
2023-03-05T07:08:46.151Z,15.90
2023-03-05T07:09:33.637Z,15.43
2023-03-05T07:10:13.920Z,14.90
2023-03-05T07:10:56.728Z,14.90
2023-03-05T07:11:37.101Z,15.03
2023-03-05T07:12:19.597Z,16.13
2023-03-05T07:13:11.447Z,15.53
2023-03-05T07:14:01.152Z,16.40
2023-03-05T07:14:53.178Z,15.47
2023-03-05T07:15:41.232Z,15.23
2023-03-05T07:17:01.765Z,16.10
2023-03-05T07:19:42.220Z,16.30
2023-03-05T07:20:46.386Z,16.57
2023-03-05T07:22:45.596Z,15.80
2023-03-05T07:23:24.666Z,16.30
2023-03-05T07:24:04.777Z,17.00
2023-03-05T07:24:46.747Z,16.87
2023-03-05T07:25:38.430Z,16.17
2023-03-05T07:26:18.624Z,16.53
2023-03-05T07:27:05.685Z,17.40
2023-03-05T07:27:48.795Z,17.17
2023-03-05T07:28:32.871Z,16.57
2023-03-05T07:29:12.667Z,17.07
2023-03-05T07:29:59.540Z,16.33
2023-03-05T07:31:09.450Z,15.73
2023-03-05T07:31:49.910Z,16.57
2023-03-05T07:34:15.538Z,14.83
2023-03-05T07:34:47.264Z,15.73
2023-03-05T07:35:26.267Z,15.83
2023-03-05T07:36:31.000Z,15.23
2023-03-05T07:38:18.281Z,15.53
2023-03-05T07:38:58.669Z,14.83
2023-03-05T07:40:29.415Z,16.20
2023-03-05T07:41:14.990Z,16.03
2023-03-05T07:42:32.849Z,16.17
2023-03-05T07:43:21.612Z,15.17
2023-03-05T07:44:10.490Z,15.37
2023-03-05T07:44:57.511Z,14.93
2023-03-05T07:45:43.986Z,15.20
2023-03-05T07:46:27.771Z,15.50
2023-03-05T07:47:07.725Z,15.13
2023-03-05T07:49:20.979Z,14.30
2023-03-05T07:50:08.871Z,13.80
2023-03-05T07:50:50.978Z,14.63
2023-03-05T07:51:33.311Z,14.60
2023-03-05T07:52:21.610Z,13.77
2023-03-05T07:53:48.654Z,14.80
2023-03-05T07:54:30.633Z,14.60
2023-03-05T07:55:11.003Z,13.83
2023-03-05T07:55:53.631Z,14.57
2023-03-05T07:56:35.648Z,14.17
2023-03-05T07:57:14.766Z,13.80
2023-03-05T07:57:54.700Z,14.50
2023-03-05T07:59:14.398Z,13.67
2023-03-05T08:00:41.509Z,13.90
2023-03-05T08:01:29.436Z,14.57
2023-03-05T08:02:34.263Z,13.70
2023-03-05T08:03:16.311Z,13.90
2023-03-05T08:03:55.885Z,14.43
2023-03-05T08:04:38.961Z,14.20
2023-03-05T08:05:18.187Z,14.23
2023-03-05T08:06:06.136Z,14.57
2023-03-05T08:06:50.061Z,14.23
2023-03-05T08:08:17.448Z,13.97
2023-03-05T08:09:04.472Z,13.60
2023-03-05T08:09:43.626Z,13.90
2023-03-05T08:10:25.874Z,13.80
2023-03-05T08:11:14.721Z,13.30
2023-03-05T08:11:53.611Z,13.30
2023-03-05T08:12:40.558Z,13.80
2023-03-05T08:13:19.887Z,12.93
2023-03-05T08:14:00.656Z,13.60
2023-03-05T08:14:49.456Z,12.63
2023-03-05T08:15:28.704Z,13.10
2023-03-05T08:16:21.685Z,12.67
2023-03-05T08:17:05.667Z,13.30
2023-03-05T08:17:48.183Z,13.43
2023-03-05T08:18:27.542Z,13.77
2023-03-05T08:19:14.417Z,13.63
2023-03-05T08:19:57.725Z,13.37
2023-03-05T08:20:37.751Z,12.87
2023-03-05T08:22:35.038Z,13.37
2023-03-05T08:23:38.841Z,13.30
2023-03-05T08:24:18.371Z,12.77
2023-03-05T08:24:59.015Z,12.97
2023-03-05T08:25:41.406Z,12.57
2023-03-05T08:26:24.095Z,13.23
2023-03-05T08:27:03.453Z,13.07
2023-03-05T08:27:46.933Z,12.73
2023-03-05T08:28:51.529Z,12.83
2023-03-05T08:30:27.570Z,12.67
2023-03-05T08:31:11.859Z,11.87
2023-03-05T08:31:51.811Z,11.37
2023-03-05T08:32:40.534Z,12.00
2023-03-05T08:33:44.700Z,12.37
2023-03-05T08:34:26.243Z,12.40
2023-03-05T08:35:09.284Z,12.50
2023-03-05T08:35:56.476Z,12.27
2023-03-05T08:36:59.788Z,11.83
2023-03-05T08:37:47.852Z,12.40
2023-03-05T08:39:07.248Z,11.40
2023-03-05T08:40:11.805Z,12.03
2023-03-05T08:41:37.687Z,12.57
2023-03-05T08:42:19.651Z,13.20
2023-03-05T08:43:01.715Z,12.73
2023-03-05T08:43:41.910Z,12.97
2023-03-05T08:44:23.795Z,12.87
2023-03-05T08:45:05.202Z,12.20
2023-03-05T08:46:23.971Z,12.57
2023-03-05T08:47:41.635Z,12.20
2023-03-05T08:48:20.978Z,11.73
2023-03-05T08:49:25.230Z,11.33
2023-03-05T08:51:12.967Z,12.07
2023-03-05T08:52:34.651Z,12.63
2023-03-05T08:54:33.872Z,11.37
2023-03-05T08:55:14.288Z,11.00
2023-03-05T08:55:58.363Z,12.37
2023-03-05T08:58:21.508Z,11.60
2023-03-05T08:59:41.698Z,12.27
2023-03-05T09:01:10.542Z,10.93
2023-03-05T09:01:52.614Z,11.33
2023-03-05T09:02:40.228Z,10.77
2023-03-05T09:03:22.856Z,11.80
2023-03-05T09:05:05.150Z,11.63
2023-03-05T09:06:34.620Z,11.43
2023-03-05T09:07:13.410Z,11.60
2023-03-05T09:08:17.679Z,12.20
2023-03-05T09:08:56.456Z,12.13
2023-03-05T09:09:37.635Z,11.77
2023-03-05T09:10:25.183Z,11.30
2023-03-05T09:11:07.334Z,11.30
2023-03-05T09:11:47.752Z,10.70
2023-03-05T09:13:07.859Z,10.97
2023-03-05T09:13:47.745Z,11.40
2023-03-05T09:14:29.360Z,11.17
2023-03-05T09:15:18.655Z,12.30
2023-03-05T09:16:07.128Z,11.07
2023-03-05T09:17:11.014Z,11.97
2023-03-05T09:19:15.321Z,10.93
2023-03-05T09:20:05.096Z,10.40
2023-03-05T09:20:52.778Z,11.17
2023-03-05T09:22:51.219Z,11.33
2023-03-05T09:23:35.507Z,11.30
2023-03-05T09:25:17.264Z,11.70
2023-03-05T09:26:35.771Z,10.70
2023-03-05T09:28:34.780Z,10.87
2023-03-05T09:29:14.362Z,10.87
2023-03-05T09:29:54.662Z,11.03
2023-03-05T09:32:57.481Z,10.07
2023-03-05T09:33:44.260Z,10.10
2023-03-05T09:34:24.080Z,10.10
2023-03-05T09:35:03.980Z,9.67
2023-03-05T09:35:43.822Z,10.17
2023-03-05T09:37:52.842Z,10.30
2023-03-05T09:39:13.205Z,9.67
2023-03-05T09:40:19.087Z,9.67
2023-03-05T09:42:12.735Z,10.53
2023-03-05T09:43:53.987Z,10.57
2023-03-05T09:45:02.529Z,11.10
2023-03-05T09:46:44.067Z,11.07
2023-03-05T09:47:24.753Z,10.57
2023-03-05T09:49:00.919Z,9.90
2023-03-05T09:49:52.449Z,10.67
2023-03-05T09:50:44.964Z,10.00
2023-03-05T09:51:33.338Z,10.13
2023-03-05T09:52:15.345Z,9.70
2023-03-05T09:53:01.774Z,9.70
2023-03-05T09:54:12.828Z,9.90
2023-03-05T09:54:57.949Z,11.07
2023-03-05T09:55:52.994Z,10.83
2023-03-05T09:56:37.912Z,10.63
2023-03-05T09:59:03.636Z,10.97
2023-03-05T09:59:59.909Z,11.17
2023-03-05T10:00:50.400Z,10.80
2023-03-05T10:01:39.816Z,10.77
2023-03-05T10:02:35.358Z,10.53
2023-03-05T10:04:38.392Z,10.97
2023-03-05T10:06:01.637Z,11.17
2023-03-05T10:06:57.903Z,10.67
2023-03-05T10:08:01.651Z,11.70
2023-03-05T10:08:52.184Z,11.33
2023-03-05T10:09:43.265Z,10.57
2023-03-05T10:10:36.995Z,11.30
2023-03-05T10:11:33.268Z,11.50
2023-03-05T10:12:50.937Z,11.53
2023-03-05T10:14:43.260Z,11.53
2023-03-05T10:15:22.494Z,10.97
2023-03-05T10:16:24.526Z,10.30
2023-03-05T10:17:06.431Z,10.63
2023-03-05T10:18:13.759Z,9.53
2023-03-05T10:19:32.364Z,9.03
2023-03-05T10:20:14.391Z,8.47
2023-03-05T10:21:22.439Z,8.13
2023-03-05T10:22:14.996Z,9.83
2023-03-05T10:23:58.297Z,10.10
2023-03-05T10:24:37.760Z,10.60
2023-03-05T10:25:19.676Z,10.53
2023-03-05T10:26:05.017Z,10.60
2023-03-05T10:27:00.133Z,10.27
2023-03-05T10:27:54.172Z,9.73
2023-03-05T10:28:55.067Z,10.33
2023-03-05T10:29:55.545Z,11.17
2023-03-05T10:30:34.550Z,9.93
2023-03-05T10:31:26.576Z,9.90
2023-03-05T10:32:35.140Z,10.07
2023-03-05T10:33:25.189Z,9.93
2023-03-05T10:34:23.958Z,9.43
2023-03-05T10:35:22.657Z,9.90
2023-03-05T10:36:26.041Z,10.30
2023-03-05T10:37:55.579Z,10.27
2023-03-05T10:39:18.984Z,10.27
2023-03-05T10:40:46.786Z,10.00
2023-03-05T10:41:37.382Z,10.13
2023-03-05T10:43:20.881Z,9.27
2023-03-05T10:44:37.936Z,7.90
2023-03-05T10:45:29.487Z,7.63
2023-03-05T10:46:16.449Z,7.40
2023-03-05T10:47:06.346Z,7.90
2023-03-05T10:49:57.037Z,7.87
2023-03-05T10:51:52.364Z,8.13
2023-03-05T10:52:34.596Z,7.50
2023-03-05T10:53:37.063Z,7.57
2023-03-05T10:54:54.131Z,7.73
2023-03-05T10:55:43.654Z,7.37
2023-03-05T10:56:29.091Z,7.53
2023-03-05T10:57:24.397Z,6.93
2023-03-05T10:58:04.678Z,6.53
2023-03-05T10:58:47.096Z,6.20
2023-03-05T10:59:26.783Z,6.87
2023-03-05T11:00:05.678Z,6.43
2023-03-05T11:01:06.135Z,6.50
2023-03-05T11:02:10.365Z,6.20
2023-03-05T11:04:00.292Z,6.80
2023-03-05T11:04:40.771Z,6.40
2023-03-05T11:06:52.767Z,6.17
2023-03-05T11:07:36.011Z,6.03
2023-03-05T11:08:29.012Z,6.23
2023-03-05T11:09:48.539Z,6.17
2023-03-05T11:10:29.128Z,6.90
2023-03-05T11:12:38.574Z,7.27
2023-03-05T11:13:27.293Z,6.97
2023-03-05T11:14:30.956Z,6.67
2023-03-05T11:15:34.627Z,7.27
2023-03-05T11:18:17.623Z,8.47
2023-03-05T11:19:33.226Z,7.33
2023-03-05T11:20:27.752Z,8.77
2023-03-05T11:21:19.927Z,8.20
2023-03-05T11:23:11.923Z,8.97
2023-03-05T11:23:52.817Z,9.17
2023-03-05T11:24:34.901Z,9.27
2023-03-05T11:25:26.248Z,9.40
2023-03-05T11:26:13.480Z,9.67
2023-03-05T11:27:23.366Z,9.50
2023-03-05T11:28:02.473Z,9.70
2023-03-05T11:30:37.278Z,9.47
2023-03-05T11:31:26.372Z,9.77
2023-03-05T11:32:25.639Z,9.40
2023-03-05T11:33:20.357Z,9.97
2023-03-05T11:35:34.835Z,9.63
2023-03-05T11:36:58.172Z,9.33
2023-03-05T11:37:39.186Z,9.73
2023-03-05T11:38:18.445Z,10.03
2023-03-05T11:39:23.778Z,9.73
2023-03-05T11:40:49.758Z,10.47
2023-03-05T11:41:42.578Z,10.70
2023-03-05T11:42:45.441Z,10.27
2023-03-05T11:43:55.481Z,10.77
2023-03-05T11:44:58.287Z,11.37
2023-03-05T11:45:46.260Z,11.03
2023-03-05T11:47:42.764Z,10.07
2023-03-05T11:48:36.233Z,9.97
2023-03-05T11:49:26.805Z,9.93
2023-03-05T11:51:42.304Z,10.23
2023-03-05T11:52:39.539Z,9.77
2023-03-05T11:54:55.930Z,9.90
2023-03-05T11:55:46.348Z,9.60
2023-03-05T11:56:29.511Z,10.40
2023-03-05T11:57:15.827Z,10.10
2023-03-05T12:00:41.969Z,10.00
2023-03-05T12:01:36.232Z,9.30
2023-03-05T12:03:11.735Z,9.50
2023-03-05T12:04:04.962Z,9.63
2023-03-05T12:04:51.924Z,10.00
2023-03-05T12:05:37.431Z,10.20
2023-03-05T12:06:38.659Z,10.00
2023-03-05T12:07:35.142Z,10.10
2023-03-05T12:08:25.703Z,9.60
2023-03-05T12:09:43.600Z,10.17
2023-03-05T12:11:48.200Z,9.33
2023-03-05T12:12:27.309Z,9.20
2023-03-05T12:13:34.140Z,9.70
2023-03-05T12:15:06.232Z,9.70
2023-03-05T12:15:58.330Z,9.77
2023-03-05T12:17:14.182Z,9.47
2023-03-05T12:18:18.619Z,9.70
2023-03-05T12:19:48.591Z,9.23
2023-03-05T12:20:44.487Z,9.50
2023-03-05T12:21:34.694Z,9.27
2023-03-05T12:22:24.011Z,9.03
2023-03-05T12:23:04.016Z,9.53
2023-03-05T12:23:55.707Z,9.67
2023-03-05T12:24:38.238Z,9.03
2023-03-05T12:25:47.219Z,8.97
2023-03-05T12:27:03.693Z,8.70
2023-03-05T12:27:51.689Z,8.63
2023-03-05T12:28:31.560Z,8.90
2023-03-05T12:29:28.652Z,8.60
2023-03-05T12:30:39.454Z,8.97
2023-03-05T12:31:38.095Z,8.80
2023-03-05T12:33:47.406Z,8.77
2023-03-05T12:34:26.448Z,8.47
2023-03-05T12:35:30.262Z,8.53
2023-03-05T12:36:35.640Z,8.47
2023-03-05T12:37:56.270Z,8.60
2023-03-05T12:38:44.348Z,8.83
2023-03-05T12:39:50.416Z,8.93
2023-03-05T12:40:53.332Z,9.07
2023-03-05T12:41:37.797Z,9.27
2023-03-05T12:42:28.601Z,8.80
2023-03-05T12:43:30.393Z,9.20
2023-03-05T12:44:35.565Z,9.03
2023-03-05T12:46:23.730Z,9.20
2023-03-05T12:47:17.423Z,8.93
2023-03-05T12:50:01.115Z,8.97
2023-03-05T12:52:48.897Z,9.00
2023-03-05T12:53:30.794Z,8.77
2023-03-05T12:54:33.978Z,9.07
2023-03-05T12:55:50.469Z,8.70
2023-03-05T12:56:45.090Z,9.63